createdAt,value
2018-08-04T00:05:03.552Z,7.72
2018-08-04T00:10:18.208Z,7.78
2018-08-04T00:15:21.812Z,7.92
2018-08-04T00:20:25.337Z,7.42
2018-08-04T00:25:28.835Z,7.40
2018-08-04T00:30:32.253Z,7.62
2018-08-04T00:35:35.889Z,7.40
2018-08-04T00:40:39.339Z,8.27
2018-08-04T00:45:46.169Z,8.20
2018-08-04T00:50:49.567Z,7.60
2018-08-04T00:55:53.026Z,7.73
2018-08-04T01:00:56.494Z,7.70
2018-08-04T01:05:59.954Z,7.80
2018-08-04T01:11:03.428Z,7.50
2018-08-04T01:16:06.903Z,8.75
2018-08-04T01:21:10.522Z,7.53
2018-08-04T01:26:14.065Z,8.03
2018-08-04T01:31:17.523Z,8.58
2018-08-04T01:36:20.892Z,8.10
2018-08-04T01:41:24.435Z,8.17
2018-08-04T01:46:27.892Z,9.20
2018-08-04T01:51:35.642Z,8.35
2018-08-04T01:56:39.093Z,9.10
2018-08-04T02:01:42.755Z,9.45
2018-08-04T02:06:46.199Z,9.20
2018-08-04T02:11:50.428Z,8.68
2018-08-04T02:16:53.824Z,8.95
2018-08-04T02:21:57.252Z,8.20
2018-08-04T02:27:00.657Z,9.03
2018-08-04T02:32:04.157Z,8.70
2018-08-04T02:37:07.921Z,8.75
2018-08-04T02:42:11.313Z,8.50
2018-08-04T02:47:14.846Z,8.70
2018-08-04T02:52:18.366Z,9.25
2018-08-04T02:57:21.826Z,9.40
2018-08-04T03:02:25.386Z,8.40
2018-08-04T03:07:28.908Z,9.10
2018-08-04T03:12:32.373Z,10.10
2018-08-04T03:17:35.901Z,8.80
2018-08-04T03:22:39.377Z,8.60
2018-08-04T03:27:42.798Z,9.13
2018-08-04T03:32:46.285Z,9.08
2018-08-04T03:37:49.900Z,9.13
2018-08-04T03:42:53.454Z,8.75
2018-08-04T03:47:57.136Z,8.80
2018-08-04T03:53:00.813Z,9.90
2018-08-04T03:58:04.494Z,10.10
2018-08-04T04:03:08.024Z,9.95
2018-08-04T04:08:11.600Z,9.50
2018-08-04T04:13:15.293Z,8.85
2018-08-04T04:18:18.862Z,9.00
2018-08-04T04:23:22.338Z,8.90
2018-08-04T04:28:25.885Z,9.53
2018-08-04T04:33:30.534Z,9.50
2018-08-04T04:38:37.243Z,9.25
2018-08-04T04:43:40.682Z,9.60
2018-08-04T04:48:44.336Z,9.20
2018-08-04T04:53:47.979Z,9.95
2018-08-04T04:58:51.685Z,10.75
2018-08-04T05:03:55.183Z,9.70
2018-08-04T05:08:58.932Z,9.13
2018-08-04T05:14:02.432Z,9.43
2018-08-04T05:19:06.005Z,8.75
2018-08-04T05:24:09.426Z,8.60
2018-08-04T05:29:12.886Z,9.27
2018-08-04T05:34:17.448Z,9.38
2018-08-04T05:39:20.941Z,10.13
2018-08-04T05:44:46.760Z,10.80
2018-08-04T05:49:54.536Z,11.00
2018-08-04T05:54:58.100Z,12.73
2018-08-04T06:00:02.744Z,12.90
2018-08-04T06:05:06.509Z,12.93
2018-08-04T06:10:10.090Z,11.83
2018-08-04T06:15:13.519Z,13.30
2018-08-04T06:20:16.914Z,12.60
2018-08-04T06:25:20.462Z,13.50
2018-08-04T06:30:27.616Z,11.95
2018-08-04T06:35:32.058Z,12.13
2018-08-04T06:40:36.649Z,12.43
2018-08-04T06:45:50.710Z,11.08
2018-08-04T06:51:07.967Z,13.40
2018-08-04T06:56:13.484Z,12.35
2018-08-04T07:01:16.935Z,12.30
2018-08-04T07:06:20.423Z,13.28
2018-08-04T07:11:27.033Z,13.50
2018-08-04T07:16:30.349Z,12.82
2018-08-04T07:21:34.013Z,12.07
2018-08-04T07:26:39.208Z,11.70
2018-08-04T07:31:42.749Z,11.75
2018-08-04T07:36:46.197Z,10.80
2018-08-04T07:41:49.674Z,11.38
2018-08-04T07:46:53.051Z,10.65
2018-08-04T07:51:56.492Z,11.05
2018-08-04T07:56:59.963Z,10.23
2018-08-04T08:02:03.395Z,10.10
2018-08-04T08:07:06.825Z,11.03
2018-08-04T08:12:10.303Z,10.28
2018-08-04T08:17:13.804Z,9.80
2018-08-04T08:22:17.286Z,11.03
2018-08-04T08:27:20.735Z,10.80
2018-08-04T08:32:24.299Z,10.72
2018-08-04T08:37:27.702Z,10.93
2018-08-04T08:42:31.131Z,10.00
2018-08-04T08:47:34.485Z,11.25
2018-08-04T08:52:39.666Z,10.90
2018-08-04T08:57:43.012Z,10.30
2018-08-04T09:02:54.616Z,10.10
2018-08-04T09:08:09.368Z,10.17
2018-08-04T09:13:18.451Z,10.33
2018-08-04T09:18:21.839Z,10.70
2018-08-04T09:23:25.346Z,9.35
2018-08-04T09:28:28.817Z,9.98
2018-08-04T09:33:32.174Z,10.32
2018-08-04T09:38:35.591Z,9.73
2018-08-04T09:43:38.946Z,10.00
2018-08-04T09:48:42.361Z,9.88
2018-08-04T09:53:45.834Z,10.45
2018-08-04T09:58:49.280Z,10.50
2018-08-04T10:03:52.778Z,10.80
2018-08-04T10:08:56.200Z,9.65
2018-08-04T10:13:59.616Z,9.83
2018-08-04T10:19:03.242Z,9.67
2018-08-04T10:24:08.557Z,9.43
2018-08-04T10:29:11.883Z,9.30
2018-08-04T10:34:15.324Z,9.87
2018-08-04T10:39:18.739Z,10.50
2018-08-04T10:44:22.155Z,9.70
2018-08-04T10:49:25.696Z,9.00
2018-08-04T10:54:29.065Z,8.80
2018-08-04T10:59:32.479Z,7.65
2018-08-04T11:04:35.936Z,7.60
2018-08-04T11:09:40.287Z,7.08
2018-08-04T11:14:43.874Z,7.90
2018-08-04T11:19:47.172Z,8.18
2018-08-04T11:24:55.659Z,10.45
2018-08-04T11:30:17.861Z,8.40
2018-08-04T11:35:23.399Z,8.33
2018-08-04T11:40:27.807Z,8.30
2018-08-04T11:45:31.350Z,8.57
2018-08-04T11:50:38.655Z,8.63
2018-08-04T11:55:42.226Z,8.45
2018-08-04T12:00:45.623Z,8.23
2018-08-04T12:05:49.688Z,9.00
2018-08-04T12:10:53.144Z,7.62
2018-08-04T12:15:56.567Z,7.67
2018-08-04T12:20:59.986Z,7.50
2018-08-04T12:26:03.489Z,7.50
2018-08-04T12:31:07.053Z,7.95
2018-08-04T12:36:10.434Z,7.70
2018-08-04T12:41:13.833Z,7.00
2018-08-04T12:46:17.160Z,6.43
2018-08-04T12:51:20.511Z,7.55
2018-08-04T12:56:23.978Z,7.78
2018-08-04T13:01:27.437Z,7.85
2018-08-04T13:23:14.733Z,8.50
2018-08-04T13:28:24.040Z,8.10
2018-08-04T13:33:36.598Z,7.55
2018-08-04T13:38:43.716Z,7.83
2018-08-04T13:43:47.151Z,7.30
2018-08-04T13:48:50.452Z,7.70
2018-08-04T13:53:55.388Z,7.83
2018-08-04T13:58:58.834Z,7.42
2018-08-04T14:04:02.392Z,7.40
2018-08-04T14:09:07.713Z,7.80
2018-08-04T14:14:11.124Z,8.30
2018-08-04T14:19:14.808Z,7.90
2018-08-04T14:24:18.199Z,9.15
2018-08-04T14:29:31.287Z,9.35
2018-08-04T14:34:34.830Z,8.10
2018-08-04T14:39:38.255Z,7.90
2018-08-04T14:44:41.627Z,7.73
2018-08-04T14:49:45.086Z,7.45
2018-08-04T14:54:48.580Z,6.43
2018-08-04T14:59:55.417Z,9.25
2018-08-04T15:04:58.991Z,8.00
2018-08-04T15:10:02.371Z,7.03
2018-08-04T15:15:06.641Z,7.00
2018-08-04T15:20:10.008Z,6.83
2018-08-04T15:25:13.467Z,7.05
2018-08-04T15:30:19.036Z,7.67
2018-08-04T15:35:22.506Z,8.28
2018-08-04T15:40:25.885Z,7.40
2018-08-04T15:45:29.481Z,7.40
2018-08-04T15:50:32.956Z,7.92
2018-08-04T15:55:36.446Z,7.45
2018-08-04T16:00:40.046Z,7.65
2018-08-04T16:05:44.547Z,7.60
2018-08-04T16:10:48.042Z,7.58
2018-08-04T16:15:51.529Z,6.80
2018-08-04T16:20:55.077Z,6.85
2018-08-04T16:25:58.472Z,6.67
2018-08-04T16:31:03.206Z,7.00
2018-08-04T16:36:06.707Z,7.30
2018-08-04T16:41:10.144Z,6.40
2018-08-04T16:46:13.605Z,7.30
2018-08-04T16:51:17.002Z,6.80
2018-08-04T16:56:21.226Z,7.00
2018-08-04T17:01:24.789Z,6.37
2018-08-04T17:06:28.262Z,6.60
2018-08-04T17:11:31.864Z,6.00
2018-08-04T17:16:35.327Z,6.70
2018-08-04T17:21:38.993Z,7.10
2018-08-04T17:26:48.380Z,6.67
2018-08-04T17:37:24.367Z,7.58
2018-08-04T17:42:34.224Z,6.28
2018-08-04T17:47:39.692Z,7.08
2018-08-04T17:52:43.348Z,6.30
2018-08-04T17:57:46.766Z,6.90
2018-08-04T18:02:50.338Z,6.58
2018-08-04T18:07:53.936Z,6.37
2018-08-04T18:12:57.375Z,6.40
2018-08-04T18:18:01.081Z,8.53
2018-08-04T18:23:04.842Z,6.87
2018-08-04T18:28:08.370Z,7.35
2018-08-04T18:33:11.850Z,6.90
2018-08-04T18:38:15.413Z,7.30
2018-08-04T18:48:51.476Z,7.47
2018-08-04T18:54:00.945Z,7.53
2018-08-04T18:59:24.974Z,7.70
2018-08-04T19:04:32.199Z,7.97
2018-08-04T19:09:35.733Z,8.10
2018-08-04T19:14:42.392Z,8.15
2018-08-04T19:19:45.949Z,8.50
2018-08-04T19:24:49.847Z,9.03
2018-08-04T19:29:58.422Z,9.20
2018-08-04T19:35:01.997Z,7.90
2018-08-04T19:40:05.917Z,7.90
2018-08-04T19:45:09.352Z,8.08
2018-08-04T19:50:12.489Z,8.43
2018-08-04T19:55:15.908Z,7.60
2018-08-04T20:00:19.334Z,8.40
2018-08-04T20:05:22.780Z,8.30
2018-08-04T20:10:26.309Z,8.00
2018-08-04T20:15:29.730Z,8.70
2018-08-04T20:20:33.871Z,8.80
2018-08-04T20:25:38.740Z,8.85
2018-08-04T20:30:42.529Z,8.50
2018-08-04T20:35:48.313Z,8.05
2018-08-04T20:40:51.523Z,9.45
2018-08-04T20:45:55.462Z,6.62
2018-08-04T20:50:59.208Z,6.50
2018-08-04T20:56:02.959Z,5.22
2018-08-04T21:01:17.575Z,5.53
2018-08-04T21:06:21.148Z,4.80
2018-08-04T21:11:24.586Z,5.00
2018-08-04T21:16:32.491Z,4.33
2018-08-04T21:21:38.053Z,3.50
2018-08-04T21:26:41.583Z,3.70
2018-08-04T21:31:58.565Z,3.20
2018-08-04T21:37:07.763Z,3.50
2018-08-04T21:42:17.827Z,3.47
2018-08-04T21:47:24.341Z,2.70
2018-08-04T21:52:29.505Z,2.95
2018-08-04T21:57:39.836Z,3.30
2018-08-04T22:03:03.980Z,2.80
2018-08-04T22:08:19.833Z,4.05
2018-08-04T22:13:35.949Z,3.60
2018-08-04T22:18:43.575Z,3.57
2018-08-04T22:23:59.471Z,3.37
2018-08-04T22:29:13.248Z,3.90
2018-08-04T22:34:28.678Z,2.50
2018-08-04T22:39:35.839Z,2.85
2018-08-04T22:44:51.258Z,4.15
2018-08-04T22:55:26.100Z,2.90
2018-08-04T23:05:58.865Z,3.10
2018-08-04T23:11:03.456Z,3.47
2018-08-04T23:16:06.860Z,5.03
2018-08-04T23:21:10.516Z,3.90
2018-08-04T23:26:13.997Z,5.25
2018-08-04T23:31:18.388Z,3.20
2018-08-04T23:36:25.939Z,3.45
2018-08-04T23:41:29.410Z,4.00
2018-08-04T23:46:44.077Z,2.60
2018-08-04T23:51:47.637Z,3.08
2018-08-04T23:57:12.000Z,2.70
